createdAt,value
2023-02-06T00:00:14.298Z,96012.38
2023-02-06T00:02:12.633Z,96008.97
2023-02-06T00:04:10.879Z,96014.94
2023-02-06T00:06:09.568Z,96008.09
2023-02-06T00:08:07.940Z,96020.97
2023-02-06T00:10:08.210Z,96017.50
2023-02-06T00:12:06.890Z,96025.03
2023-02-06T00:14:05.476Z,96022.25
2023-02-06T00:16:03.965Z,96030.78
2023-02-06T00:18:02.305Z,96029.16
2023-02-06T00:20:00.385Z,96033.47
2023-02-06T00:21:58.625Z,96030.13
2023-02-06T00:23:58.864Z,96032.78
2023-02-06T00:25:58.503Z,96029.38
2023-02-06T00:27:56.694Z,96038.84
2023-02-06T00:29:55.983Z,96027.78
2023-02-06T00:31:54.166Z,96036.28
2023-02-06T00:33:52.409Z,96034.50
2023-02-06T00:35:50.731Z,96046.41
2023-02-06T00:37:49.137Z,96037.06
2023-02-06T00:39:47.395Z,96041.34
2023-02-06T00:41:47.139Z,96041.38
2023-02-06T00:43:45.353Z,96042.28
2023-02-06T00:45:43.632Z,96048.28
2023-02-06T00:47:41.890Z,96052.53
2023-02-06T00:49:40.707Z,96051.72
2023-02-06T00:51:39.628Z,96051.72
2023-02-06T00:53:37.850Z,96053.47
2023-02-06T00:55:36.305Z,96054.34
2023-02-06T00:57:36.134Z,96048.41
2023-02-06T00:59:34.352Z,96060.38
2023-02-06T01:01:32.479Z,96056.84
2023-02-06T01:03:30.775Z,96055.16
2023-02-06T01:05:29.291Z,96059.47
2023-02-06T01:07:27.597Z,96058.63
2023-02-06T01:09:25.812Z,96061.19
2023-02-06T01:11:26.252Z,96072.34
2023-02-06T01:13:25.986Z,96056.06
2023-02-06T01:15:24.191Z,96060.28
2023-02-06T01:17:22.471Z,96056.88
2023-02-06T01:19:20.678Z,96064.59
2023-02-06T01:21:21.352Z,96075.75
2023-02-06T01:23:19.615Z,96082.53
2023-02-06T01:25:18.158Z,96074.84
2023-02-06T01:27:16.283Z,96074.88
2023-02-06T01:29:15.792Z,96085.97
2023-02-06T01:31:17.304Z,96076.59
2023-02-06T01:33:17.193Z,96073.22
2023-02-06T01:35:15.445Z,96083.44
2023-02-06T01:37:13.652Z,96078.34
2023-02-06T01:39:12.177Z,96084.38
2023-02-06T01:41:12.103Z,96078.38
2023-02-06T01:43:18.866Z,96076.69
2023-02-06T01:45:49.691Z,96081.94
2023-02-06T01:47:50.047Z,96083.63
2023-02-06T01:49:52.237Z,96087.88
2023-02-06T01:51:51.377Z,96094.69
2023-02-06T01:53:55.603Z,96086.19
2023-02-06T01:55:55.604Z,96091.34
2023-02-06T01:57:52.851Z,96087.94
2023-02-06T01:59:55.975Z,96091.31
2023-02-06T02:01:54.225Z,96093.81
2023-02-06T02:03:58.182Z,96090.44
2023-02-06T02:06:01.376Z,96089.53
2023-02-06T02:08:04.922Z,96080.84
2023-02-06T02:10:07.101Z,96087.69
2023-02-06T02:12:05.736Z,96090.38
2023-02-06T02:14:07.478Z,96084.53
2023-02-06T02:16:15.255Z,96087.16
2023-02-06T02:18:32.704Z,96093.16
2023-02-06T02:21:02.793Z,96082.06
2023-02-06T02:23:12.927Z,96091.47
2023-02-06T02:25:32.192Z,96092.28
2023-02-06T02:27:51.766Z,96093.13
2023-02-06T02:30:11.895Z,96084.63
2023-02-06T02:32:39.098Z,96098.31
2023-02-06T02:35:13.939Z,96111.13
2023-02-06T02:37:19.953Z,96118.00
2023-02-06T02:39:24.510Z,96114.56
2023-02-06T02:41:29.064Z,96112.88
2023-02-06T02:43:36.254Z,96107.75
2023-02-06T02:45:41.953Z,96100.97
2023-02-06T02:47:47.700Z,96103.56
2023-02-06T02:49:47.709Z,96106.16
2023-02-06T02:51:49.987Z,96106.19
2023-02-06T02:53:48.452Z,96113.03
2023-02-06T02:55:46.851Z,96113.06
2023-02-06T02:57:50.644Z,96115.59
2023-02-06T02:59:50.476Z,96112.19
2023-02-06T03:01:53.658Z,96120.75
2023-02-06T03:03:55.716Z,96122.38
2023-02-06T03:06:14.025Z,96124.09
2023-02-06T03:08:21.892Z,96135.19
2023-02-06T03:10:29.076Z,96128.31
2023-02-06T03:12:39.195Z,96136.84
2023-02-06T03:14:45.359Z,96127.41
2023-02-06T03:16:49.297Z,96132.50
2023-02-06T03:18:54.242Z,96127.38
2023-02-06T03:20:53.557Z,96129.06
2023-02-06T03:22:54.003Z,96133.34
2023-02-06T03:24:54.699Z,96129.94
2023-02-06T03:26:59.609Z,96128.22
2023-02-06T03:29:04.069Z,96133.34
2023-02-06T03:31:04.955Z,96131.66
2023-02-06T03:33:08.508Z,96135.03
2023-02-06T03:35:11.128Z,96128.19
2023-02-06T03:37:10.161Z,96136.72
2023-02-06T03:39:08.717Z,96136.75
2023-02-06T03:41:09.067Z,96133.34
2023-02-06T03:43:08.684Z,96138.47
2023-02-06T03:45:12.779Z,96140.19
2023-02-06T03:47:13.038Z,96140.16
2023-02-06T03:49:15.970Z,96135.88
2023-02-06T03:51:19.191Z,96133.28
2023-02-06T03:53:20.128Z,96129.00
2023-02-06T03:55:21.289Z,96140.97
2023-02-06T03:57:22.832Z,96136.72
2023-02-06T03:59:21.492Z,96134.16
2023-02-06T04:01:20.408Z,96142.72
2023-02-06T04:03:20.066Z,96132.50
2023-02-06T04:05:19.707Z,96137.63
2023-02-06T04:07:24.094Z,96130.88
2023-02-06T04:09:22.381Z,96136.00
2023-02-06T04:11:20.672Z,96134.28
2023-02-06T04:13:20.406Z,96140.28
2023-02-06T04:15:18.948Z,96141.97
2023-02-06T04:17:31.299Z,96141.13
2023-02-06T04:19:35.431Z,96144.53
2023-02-06T04:21:33.713Z,96143.69
2023-02-06T04:23:31.789Z,96142.81
2023-02-06T04:25:30.226Z,96145.41
2023-02-06T04:27:28.390Z,96144.53
2023-02-06T04:29:28.192Z,96145.13
2023-02-06T04:31:26.364Z,96151.88
2023-02-06T04:33:24.524Z,96154.63
2023-02-06T04:35:22.909Z,96153.00
2023-02-06T04:37:21.056Z,96150.47
2023-02-06T04:39:19.350Z,96152.19
2023-02-06T04:41:17.619Z,96153.94
2023-02-06T04:43:15.850Z,96155.66
2023-02-06T04:45:15.857Z,96157.38
2023-02-06T04:47:14.120Z,96160.81
2023-02-06T04:49:12.378Z,96164.22
2023-02-06T04:51:10.746Z,96154.81
2023-02-06T04:53:08.994Z,96160.78
2023-02-06T04:55:07.637Z,96154.00
2023-02-06T04:57:06.102Z,96160.84
2023-02-06T04:59:04.174Z,96172.84
2023-02-06T05:01:03.889Z,96165.22
2023-02-06T05:03:02.229Z,96163.50
2023-02-06T05:05:00.499Z,96163.50
2023-02-06T05:06:58.653Z,96165.25
2023-02-06T05:08:56.799Z,96175.50
2023-02-06T05:10:55.302Z,96183.16
2023-02-06T05:12:53.476Z,96181.50
2023-02-06T05:14:51.713Z,96187.47
2023-02-06T05:16:51.213Z,96190.84
2023-02-06T05:18:53.556Z,96195.13
2023-02-06T05:20:51.901Z,96190.88
2023-02-06T05:22:50.223Z,96195.16
2023-02-06T05:24:48.462Z,96198.56
2023-02-06T05:26:46.715Z,96197.72
2023-02-06T05:28:44.926Z,96196.00
2023-02-06T05:30:43.442Z,96195.16
2023-02-06T05:32:43.054Z,96209.69
2023-02-06T05:34:41.245Z,96208.81
2023-02-06T05:36:39.510Z,96206.28
2023-02-06T05:38:37.740Z,96205.41
2023-02-06T05:40:36.001Z,96224.19
2023-02-06T05:42:34.214Z,96217.34
2023-02-06T05:44:32.315Z,96219.03
2023-02-06T05:46:37.365Z,96221.63
2023-02-06T05:48:58.794Z,96219.03
2023-02-06T05:50:57.665Z,96219.88
2023-02-06T05:52:55.838Z,96223.28
2023-02-06T05:54:54.028Z,96219.84
2023-02-06T05:56:52.293Z,96223.25
2023-02-06T05:58:50.494Z,96229.22
2023-02-06T06:00:49.021Z,96225.81
2023-02-06T06:02:47.930Z,96237.75
2023-02-06T06:04:49.979Z,96229.19
2023-02-06T06:06:48.303Z,96226.59
2023-02-06T06:08:46.625Z,96230.88
2023-02-06T06:10:44.828Z,96230.84
2023-02-06T06:12:42.982Z,96242.75
2023-02-06T06:14:41.074Z,96239.31
2023-02-06T06:16:40.814Z,96238.44
2023-02-06T06:18:55.799Z,96237.53
2023-02-06T06:20:55.258Z,96240.09
2023-02-06T06:22:53.531Z,96246.06
2023-02-06T06:24:51.663Z,96237.47
2023-02-06T06:26:50.018Z,96241.66
2023-02-06T06:28:48.216Z,96234.81
2023-02-06T06:30:46.562Z,96233.97
2023-02-06T06:32:44.867Z,96230.47
2023-02-06T06:34:43.105Z,96223.63
2023-02-06T06:36:42.770Z,96229.53
2023-02-06T06:38:41.174Z,96237.97
2023-02-06T06:40:39.915Z,96239.66
2023-02-06T06:42:38.360Z,96248.09
2023-02-06T06:44:36.690Z,96247.16
2023-02-06T06:46:34.732Z,96241.13
2023-02-06T06:48:33.512Z,96247.00
2023-02-06T06:50:31.799Z,96246.91
2023-02-06T06:52:31.364Z,96262.22
2023-02-06T06:54:29.630Z,96254.47
2023-02-06T06:56:28.175Z,96257.75
2023-02-06T06:58:26.316Z,96261.84
2023-02-06T07:00:24.570Z,96266.94
2023-02-06T07:02:22.726Z,96262.72
2023-02-06T07:04:21.776Z,96263.56
2023-02-06T07:06:20.010Z,96263.72
2023-02-06T07:08:19.635Z,96264.53
2023-02-06T07:10:18.286Z,96271.34
2023-02-06T07:12:16.588Z,96267.00
2023-02-06T07:14:14.865Z,96275.75
2023-02-06T07:16:13.782Z,96270.50
2023-02-06T07:18:14.182Z,96277.28
2023-02-06T07:20:13.217Z,96284.16
2023-02-06T07:22:11.438Z,96286.69
2023-02-06T07:24:11.157Z,96290.88
2023-02-06T07:26:09.292Z,96290.81
2023-02-06T07:28:07.731Z,96282.09
2023-02-06T07:30:06.712Z,96284.56
2023-02-06T07:32:05.659Z,96287.59
2023-02-06T07:34:03.764Z,96287.34
2023-02-06T07:36:03.823Z,96286.28
2023-02-06T07:38:02.409Z,96287.50
2023-02-06T07:40:03.425Z,96289.84
2023-02-06T07:42:01.688Z,96290.50
2023-02-06T07:44:13.333Z,96293.94
2023-02-06T07:46:11.669Z,96290.31
2023-02-06T07:48:10.326Z,96297.19
2023-02-06T07:50:08.846Z,96292.97
2023-02-06T07:52:07.157Z,96288.94
2023-02-06T07:54:05.660Z,96297.72
2023-02-06T07:56:11.064Z,96301.78
2023-02-06T07:58:12.076Z,96293.03
2023-02-06T08:00:11.390Z,96306.63
2023-02-06T08:02:12.865Z,96298.13
2023-02-06T08:04:12.124Z,96296.31
2023-02-06T08:06:11.836Z,96300.53
2023-02-06T08:08:10.874Z,96298.13
2023-02-06T08:10:09.903Z,96294.41
2023-02-06T08:12:11.797Z,96296.63
2023-02-06T08:14:11.143Z,96291.41
2023-02-06T08:16:13.134Z,96294.16
2023-02-06T08:18:11.332Z,96291.53
2023-02-06T08:20:10.443Z,96306.56
2023-02-06T08:22:08.739Z,96293.09
2023-02-06T08:24:07.397Z,96297.09
2023-02-06T08:26:07.771Z,96297.47
2023-02-06T08:28:07.483Z,96294.88
2023-02-06T08:30:06.629Z,96290.06
2023-02-06T08:32:05.156Z,96288.72
2023-02-06T08:34:03.698Z,96288.91
2023-02-06T08:36:03.110Z,96280.50
2023-02-06T08:38:02.218Z,96294.03
2023-02-06T08:40:00.393Z,96282.00
2023-02-06T08:41:58.628Z,96286.22
2023-02-06T08:44:00.180Z,96280.97
2023-02-06T08:45:59.582Z,96279.47
2023-02-06T08:47:58.008Z,96283.22
2023-02-06T08:49:56.325Z,96290.75
2023-02-06T08:51:55.248Z,96301.66
2023-02-06T08:53:53.851Z,96313.47
2023-02-06T08:55:58.264Z,96302.88
2023-02-06T08:57:56.477Z,96307.53
2023-02-06T08:59:56.156Z,96307.34
2023-02-06T09:01:54.298Z,96304.66
2023-02-06T09:03:56.171Z,96304.69
2023-02-06T09:06:09.428Z,96304.84
2023-02-06T09:08:09.205Z,96301.66
2023-02-06T09:10:16.223Z,96305.53
2023-02-06T09:12:20.657Z,96308.97
2023-02-06T09:14:20.357Z,96306.69
2023-02-06T09:16:21.442Z,96298.56
2023-02-06T09:18:20.101Z,96310.47
2023-02-06T09:20:18.887Z,96303.59
2023-02-06T09:22:17.279Z,96306.13
2023-02-06T09:24:15.784Z,96297.53
2023-02-06T09:26:15.581Z,96302.03
2023-02-06T09:28:13.855Z,96303.84
2023-02-06T09:30:14.353Z,96306.28
2023-02-06T09:32:14.434Z,96307.03
2023-02-06T09:34:13.749Z,96308.78
2023-02-06T09:36:14.805Z,96304.91
2023-02-06T09:38:13.228Z,96302.63
2023-02-06T09:40:14.555Z,96294.78
2023-02-06T09:42:18.606Z,96291.63
2023-02-06T09:44:21.575Z,96277.84
2023-02-06T09:46:23.612Z,96284.59
2023-02-06T09:48:28.508Z,96287.47
2023-02-06T09:50:31.503Z,96276.09
2023-02-06T09:52:48.008Z,96275.81
2023-02-06T09:54:59.229Z,96269.97
2023-02-06T09:57:05.074Z,96265.50
2023-02-06T09:59:11.121Z,96267.19
2023-02-06T10:01:17.208Z,96257.38
2023-02-06T10:03:40.155Z,96262.25
2023-02-06T10:05:49.636Z,96263.06
2023-02-06T10:08:03.202Z,96260.38
2023-02-06T10:10:05.591Z,96249.25
2023-02-06T10:12:08.716Z,96247.66
2023-02-06T10:14:12.019Z,96247.91
2023-02-06T10:16:21.463Z,96242.25
2023-02-06T10:18:26.027Z,96243.84
2023-02-06T10:20:35.804Z,96244.44
2023-02-06T10:22:42.057Z,96247.13
2023-02-06T10:24:45.191Z,96254.56
2023-02-06T10:26:43.805Z,96256.03
2023-02-06T10:28:42.217Z,96248.38
2023-02-06T10:31:07.348Z,96241.34
2023-02-06T10:33:25.393Z,96239.72
2023-02-06T10:35:37.286Z,96233.50
2023-02-06T10:38:08.578Z,96229.34
2023-02-06T10:40:27.658Z,96230.13
2023-02-06T10:42:39.475Z,96231.81
2023-02-06T10:44:51.110Z,96220.06
2023-02-06T10:46:55.125Z,96213.81
2023-02-06T10:49:00.843Z,96222.66
2023-02-06T10:51:05.040Z,96222.00
2023-02-06T10:53:07.998Z,96221.81
2023-02-06T10:55:17.322Z,96219.50
2023-02-06T10:57:19.635Z,96214.22
2023-02-06T10:59:23.712Z,96206.53
2023-02-06T11:01:26.328Z,96214.81
2023-02-06T11:03:30.481Z,96212.28
2023-02-06T11:05:30.624Z,96212.19
2023-02-06T11:07:32.861Z,96207.63
2023-02-06T11:09:33.605Z,96214.97
2023-02-06T11:11:34.056Z,96213.94
2023-02-06T11:13:36.582Z,96216.53
2023-02-06T11:15:39.310Z,96211.88
2023-02-06T11:17:37.771Z,96221.09
2023-02-06T11:19:40.533Z,96232.41
2023-02-06T11:21:53.960Z,96230.25
2023-02-06T11:24:09.769Z,96239.03
2023-02-06T11:26:14.380Z,96229.81
2023-02-06T11:28:18.714Z,96242.66
2023-02-06T11:30:29.525Z,96240.13
2023-02-06T11:32:36.129Z,96230.78
2023-02-06T11:34:37.329Z,96231.06
2023-02-06T11:36:39.361Z,96227.19
2023-02-06T11:38:37.965Z,96238.22
2023-02-06T11:40:36.841Z,96236.41
2023-02-06T11:42:38.037Z,96235.25
2023-02-06T11:44:39.521Z,96234.66
2023-02-06T11:46:39.033Z,96232.22
2023-02-06T11:48:42.111Z,96220.91
2023-02-06T11:50:41.428Z,96227.06
2023-02-06T11:52:40.191Z,96227.75
2023-02-06T11:54:38.452Z,96221.69
2023-02-06T11:56:36.783Z,96217.75
2023-02-06T11:58:36.374Z,96221.94
2023-02-06T12:00:36.098Z,96227.53
2023-02-06T12:02:36.268Z,96225.72
2023-02-06T12:04:37.900Z,96229.66
2023-02-06T12:06:39.386Z,96229.41
2023-02-06T12:08:48.608Z,96215.84
2023-02-06T12:10:56.605Z,96226.19
2023-02-06T12:13:07.641Z,96227.78
2023-02-06T12:15:36.157Z,96224.59
2023-02-06T12:17:35.283Z,96229.00
2023-02-06T12:19:44.660Z,96223.81
2023-02-06T12:21:55.097Z,96230.19
2023-02-06T12:23:57.109Z,96227.91
2023-02-06T12:26:00.947Z,96224.38
2023-02-06T12:28:09.768Z,96225.69
2023-02-06T12:30:27.615Z,96215.28
2023-02-06T12:32:33.211Z,96213.94
2023-02-06T12:34:44.252Z,96227.19
2023-02-06T12:36:53.659Z,96225.31
2023-02-06T12:38:57.153Z,96228.84
2023-02-06T12:41:15.281Z,96232.25
2023-02-06T12:43:15.757Z,96235.00
2023-02-06T12:45:36.339Z,96235.28
2023-02-06T12:47:42.122Z,96238.66
2023-02-06T12:49:46.652Z,96236.09
2023-02-06T12:51:50.913Z,96238.38
2023-02-06T12:53:52.908Z,96231.31
2023-02-06T12:55:57.733Z,96241.38
2023-02-06T12:57:58.528Z,96245.75
2023-02-06T13:00:35.593Z,96239.03
2023-02-06T13:02:57.861Z,96245.25
2023-02-06T13:04:56.995Z,96248.66
2023-02-06T13:06:59.924Z,96253.06
2023-02-06T13:09:00.827Z,96247.22
2023-02-06T13:11:04.426Z,96248.97
2023-02-06T13:13:03.028Z,96248.41
2023-02-06T13:15:05.726Z,96256.31
2023-02-06T13:17:11.896Z,96251.88
2023-02-06T13:19:26.087Z,96258.28
2023-02-06T13:21:28.709Z,96259.84
2023-02-06T13:23:27.050Z,96266.78
2023-02-06T13:25:51.950Z,96265.34
2023-02-06T13:27:50.392Z,96273.38
2023-02-06T13:29:49.515Z,96271.78
2023-02-06T13:31:47.766Z,96270.31
2023-02-06T13:33:52.264Z,96272.13
2023-02-06T13:35:58.389Z,96273.19
2023-02-06T13:38:28.114Z,96278.84
2023-02-06T13:40:32.315Z,96275.56
2023-02-06T13:42:44.978Z,96275.66
2023-02-06T13:44:43.768Z,96281.59
2023-02-06T13:47:18.825Z,96286.75
2023-02-06T13:49:42.186Z,96282.59
2023-02-06T13:51:53.052Z,96285.28
2023-02-06T13:54:20.089Z,96288.03
2023-02-06T13:56:45.922Z,96285.56
2023-02-06T13:58:49.286Z,96281.38
2023-02-06T14:00:50.775Z,96288.22
2023-02-06T14:02:52.296Z,96286.59
2023-02-06T14:04:52.693Z,96291.75
2023-02-06T14:07:07.637Z,96290.00
2023-02-06T14:09:12.245Z,96289.81
2023-02-06T14:11:24.109Z,96293.97
2023-02-06T14:13:35.780Z,96300.69
2023-02-06T14:15:40.929Z,96302.34
2023-02-06T14:17:50.153Z,96302.56
2023-02-06T14:19:56.121Z,96305.34
2023-02-06T14:22:04.397Z,96309.78
2023-02-06T14:24:28.726Z,96311.53
2023-02-06T14:26:37.908Z,96305.63
2023-02-06T14:28:50.958Z,96323.59
2023-02-06T14:30:59.618Z,96314.03
2023-02-06T14:33:09.137Z,96320.03
2023-02-06T14:35:22.107Z,96317.50
2023-02-06T14:40:22.924Z,96323.50
2023-02-06T14:42:27.174Z,96313.34
2023-02-06T14:44:30.030Z,96316.97
2023-02-06T14:46:30.361Z,96322.16
2023-02-06T14:48:33.100Z,96326.53
2023-02-06T14:50:36.096Z,96326.63
2023-02-06T14:52:35.747Z,96325.72
2023-02-06T14:54:35.591Z,96336.81
2023-02-06T14:56:36.587Z,96317.84
2023-02-06T14:58:35.170Z,96331.59
2023-02-06T15:00:34.206Z,96341.13
2023-02-06T15:02:33.989Z,96333.41
2023-02-06T15:04:32.122Z,96332.44
2023-02-06T15:06:34.934Z,96336.78
2023-02-06T15:08:34.028Z,96335.94
2023-02-06T15:10:36.673Z,96337.69
2023-02-06T15:12:35.965Z,96333.44
2023-02-06T15:14:36.105Z,96340.34
2023-02-06T15:16:46.898Z,96338.72
2023-02-06T15:18:45.588Z,96338.78
2023-02-06T15:20:46.434Z,96344.81
2023-02-06T15:22:46.165Z,96348.28
2023-02-06T15:24:57.139Z,96347.47
2023-02-06T15:27:04.001Z,96350.06
2023-02-06T15:29:04.198Z,96355.25
2023-02-06T15:31:03.028Z,96355.31
2023-02-06T15:33:02.106Z,96372.47
2023-02-06T15:35:01.048Z,96369.09
2023-02-06T15:36:59.349Z,96374.25
2023-02-06T15:38:59.670Z,96375.16
2023-02-06T15:41:02.226Z,96380.28
2023-02-06T15:43:01.462Z,96375.19
2023-02-06T15:45:00.186Z,96391.53
2023-02-06T15:46:59.303Z,96377.88
2023-02-06T15:48:58.504Z,96387.25
2023-02-06T15:50:59.519Z,96389.03
2023-02-06T15:52:57.693Z,96386.47
2023-02-06T15:55:00.753Z,96388.19
2023-02-06T15:57:04.883Z,96395.03
2023-02-06T15:59:06.568Z,96397.59
2023-02-06T16:01:06.884Z,96398.44
2023-02-06T16:03:08.354Z,96400.09
2023-02-06T16:05:12.331Z,96412.09
2023-02-06T16:07:16.953Z,96407.81
2023-02-06T16:09:22.586Z,96410.44
2023-02-06T16:11:40.134Z,96415.56
2023-02-06T16:13:39.088Z,96420.69
2023-02-06T16:15:39.321Z,96424.16
2023-02-06T16:17:41.308Z,96423.31
2023-02-06T16:19:46.706Z,96430.22
2023-02-06T16:21:44.822Z,96429.38
2023-02-06T16:23:47.543Z,96431.13
2023-02-06T16:25:47.149Z,96430.31
2023-02-06T16:27:47.373Z,96435.50
2023-02-06T16:29:50.303Z,96437.22
2023-02-06T16:31:58.243Z,96440.69
2023-02-06T16:34:03.722Z,96449.28
2023-02-06T16:36:02.123Z,96446.69
2023-02-06T16:38:00.322Z,96444.97
2023-02-06T16:39:58.496Z,96452.69
2023-02-06T16:41:56.724Z,96456.13
2023-02-06T16:43:58.855Z,96452.69
2023-02-06T16:45:59.584Z,96452.69
2023-02-06T16:47:58.018Z,96455.25
2023-02-06T16:49:56.635Z,96453.59
2023-02-06T16:51:55.395Z,96461.28
2023-02-06T16:53:53.932Z,96463.88
2023-02-06T16:55:53.376Z,96464.72
2023-02-06T16:57:54.519Z,96469.81
2023-02-06T16:59:54.319Z,96469.00
2023-02-06T17:01:52.423Z,96472.47
2023-02-06T17:03:50.954Z,96472.47
2023-02-06T17:05:53.081Z,96471.59
2023-02-06T17:07:55.849Z,96481.91
2023-02-06T17:09:57.383Z,96468.19
2023-02-06T17:11:55.594Z,96475.91
2023-02-06T17:13:54.438Z,96475.91
2023-02-06T17:15:54.654Z,96478.47
2023-02-06T17:17:54.965Z,96498.16
2023-02-06T17:19:53.439Z,96487.00
2023-02-06T17:21:51.899Z,96496.47
2023-02-06T17:23:51.616Z,96493.03
2023-02-06T17:25:51.201Z,96504.19
2023-02-06T17:27:50.002Z,96499.91
2023-02-06T17:29:48.918Z,96505.06
2023-02-06T17:31:49.092Z,96503.34
2023-02-06T17:33:47.585Z,96503.31
2023-02-06T17:35:48.471Z,96515.28
2023-02-06T17:37:47.166Z,96511.03
2023-02-06T17:39:45.776Z,96519.59
2023-02-06T17:41:44.153Z,96519.63
2023-02-06T17:43:42.658Z,96518.78
2023-02-06T17:45:42.008Z,96517.09
2023-02-06T17:47:42.154Z,96508.53
2023-02-06T17:49:40.745Z,96508.53
2023-02-06T17:51:41.624Z,96505.13
2023-02-06T17:53:40.316Z,96511.97
2023-02-06T17:55:38.777Z,96523.13
2023-02-06T17:57:38.113Z,96517.13
2023-02-06T17:59:36.505Z,96513.69
2023-02-06T18:01:35.174Z,96523.13
2023-02-06T18:03:35.852Z,96517.09
2023-02-06T18:05:34.843Z,96521.44
2023-02-06T18:07:33.519Z,96515.44
2023-02-06T18:09:31.888Z,96519.72
2023-02-06T18:11:30.478Z,96514.53
2023-02-06T18:13:29.270Z,96515.38
2023-02-06T18:15:29.360Z,96515.38
2023-02-06T18:17:29.381Z,96512.81
2023-02-06T18:19:41.479Z,96513.69
2023-02-06T18:21:40.679Z,96515.38
2023-02-06T18:23:42.588Z,96513.69
2023-02-06T18:25:43.447Z,96518.78
2023-02-06T18:27:42.893Z,96515.31
2023-02-06T18:29:49.682Z,96506.78
2023-02-06T18:31:49.912Z,96511.09
2023-02-06T18:33:48.304Z,96515.38
2023-02-06T18:35:50.824Z,96517.13
2023-02-06T18:37:50.161Z,96521.38
2023-02-06T18:39:48.530Z,96525.69
2023-02-06T18:42:03.963Z,96522.22
2023-02-06T18:44:03.115Z,96521.38
2023-02-06T18:46:07.754Z,96529.94
2023-02-06T18:48:08.541Z,96528.22
2023-02-06T18:50:07.450Z,96523.97
2023-02-06T18:52:07.883Z,96524.78
2023-02-06T18:54:07.948Z,96519.66
2023-02-06T18:56:06.498Z,96523.03
2023-02-06T18:58:06.039Z,96524.72
2023-02-06T19:00:05.817Z,96525.56
2023-02-06T19:02:04.537Z,96538.41
2023-02-06T19:04:02.832Z,96534.13
2023-02-06T19:06:01.097Z,96533.31
2023-02-06T19:08:00.814Z,96531.59
2023-02-06T19:10:00.404Z,96530.72
2023-02-06T19:11:58.723Z,96534.13
2023-02-06T19:13:57.094Z,96535.00
2023-02-06T19:16:05.960Z,96533.34
2023-02-06T19:18:05.613Z,96530.75
2023-02-06T19:20:06.230Z,96535.88
2023-02-06T19:22:04.682Z,96534.16
2023-02-06T19:24:05.948Z,96532.44
2023-02-06T19:26:07.079Z,96533.31
2023-02-06T19:28:05.536Z,96531.56
2023-02-06T19:30:04.856Z,96531.56
2023-02-06T19:32:03.689Z,96543.53
2023-02-06T19:34:03.020Z,96534.97
2023-02-06T19:36:06.126Z,96537.47
2023-02-06T19:38:04.437Z,96543.47
2023-02-06T19:40:04.077Z,96543.47
2023-02-06T19:42:04.577Z,96551.19
2023-02-06T19:44:06.910Z,96543.50
2023-02-06T19:46:05.948Z,96549.53
2023-02-06T19:48:06.538Z,96548.69
2023-02-06T19:50:05.947Z,96552.16
2023-02-06T19:52:04.474Z,96548.72
2023-02-06T19:54:02.839Z,96551.31
2023-02-06T19:56:02.853Z,96548.72
2023-02-06T19:58:01.145Z,96557.28
2023-02-06T20:00:00.801Z,96552.97
2023-02-06T20:02:01.496Z,96558.13
2023-02-06T20:04:01.631Z,96553.00
2023-02-06T20:06:02.425Z,96551.28
2023-02-06T20:08:01.242Z,96548.72
2023-02-06T20:09:59.442Z,96552.16
2023-02-06T20:11:59.191Z,96550.47
2023-02-06T20:13:58.462Z,96545.28
2023-02-06T20:15:57.596Z,96550.47
2023-02-06T20:17:56.071Z,96555.59
2023-02-06T20:19:54.448Z,96559.91
2023-02-06T20:21:57.881Z,96545.34
2023-02-06T20:23:57.589Z,96552.16
2023-02-06T20:25:56.193Z,96555.56
2023-02-06T20:27:55.849Z,96559.91
2023-02-06T20:29:54.464Z,96555.63
2023-02-06T20:31:54.186Z,96553.94
2023-02-06T20:33:52.852Z,96555.66
2023-02-06T20:35:51.024Z,96561.66
2023-02-06T20:37:49.293Z,96558.22
2023-02-06T20:39:47.535Z,96555.66
2023-02-06T20:41:46.208Z,96557.41
2023-02-06T20:43:48.752Z,96561.66
2023-02-06T20:45:47.180Z,96571.09
2023-02-06T20:47:45.587Z,96569.38
2023-02-06T20:49:43.957Z,96557.41
2023-02-06T20:51:42.451Z,96560.81
2023-02-06T20:53:41.041Z,96563.38
2023-02-06T20:55:41.795Z,96568.53
2023-02-06T20:57:39.951Z,96559.09
2023-02-06T20:59:39.654Z,96561.69
2023-02-06T21:01:37.896Z,96578.81
2023-02-06T21:03:39.002Z,96577.13
2023-02-06T21:05:37.344Z,96575.41
2023-02-06T21:07:35.838Z,96569.44
2023-02-06T21:09:34.400Z,96568.56
2023-02-06T21:11:35.248Z,96572.84
2023-02-06T21:13:35.041Z,96566.00
2023-02-06T21:15:45.956Z,96557.44
2023-02-06T21:17:44.566Z,96557.47
2023-02-06T21:19:42.792Z,96556.63
2023-02-06T21:21:45.677Z,96560.94
2023-02-06T21:23:44.908Z,96556.66
2023-02-06T21:25:43.183Z,96569.53
2023-02-06T21:27:41.989Z,96552.44
2023-02-06T21:29:40.507Z,96559.28
2023-02-06T21:31:40.435Z,96558.41
2023-02-06T21:33:39.337Z,96554.97
2023-02-06T21:35:39.675Z,96556.66
2023-02-06T21:37:38.041Z,96566.91
2023-02-06T21:39:38.895Z,96560.94
2023-02-06T21:41:37.982Z,96558.41
2023-02-06T21:43:36.777Z,96565.25
2023-02-06T21:45:35.129Z,96565.25
2023-02-06T21:47:35.895Z,96560.97
2023-02-06T21:49:34.223Z,96572.97
2023-02-06T21:51:32.538Z,96571.25
2023-02-06T21:53:31.000Z,96569.53
2023-02-06T21:55:33.654Z,96574.66
2023-02-06T21:57:32.631Z,96570.41
2023-02-06T21:59:34.046Z,96581.50
2023-02-06T22:01:34.381Z,96578.09
2023-02-06T22:03:37.447Z,96579.78
2023-02-06T22:05:36.203Z,96582.38
2023-02-06T22:07:36.256Z,96594.34
2023-02-06T22:09:34.533Z,96582.34
2023-02-06T22:11:33.458Z,96584.91
2023-02-06T22:13:32.213Z,96585.75
2023-02-06T22:15:30.508Z,96591.72
2023-02-06T22:17:30.370Z,96594.28
2023-02-06T22:19:30.352Z,96588.28
2023-02-06T22:21:30.727Z,96594.25
2023-02-06T22:23:28.926Z,96590.84
2023-02-06T22:25:28.475Z,96592.53
2023-02-06T22:27:26.845Z,96592.53
2023-02-06T22:29:25.328Z,96598.47
2023-02-06T22:31:25.410Z,96595.06
2023-02-06T22:33:24.277Z,96590.75
2023-02-06T22:35:24.171Z,96591.59
2023-02-06T22:37:22.753Z,96593.28
2023-02-06T22:39:21.549Z,96597.56
2023-02-06T22:41:20.106Z,96597.53
2023-02-06T22:43:18.332Z,96596.72
2023-02-06T22:45:16.581Z,96593.28
2023-02-06T22:47:14.854Z,96595.84
2023-02-06T22:49:13.610Z,96595.00
2023-02-06T22:51:13.760Z,96600.97
2023-02-06T22:53:30.219Z,96599.22
2023-02-06T22:55:49.016Z,96604.41
2023-02-06T22:57:47.249Z,96593.28
2023-02-06T22:59:45.963Z,96598.41
2023-02-06T23:01:49.963Z,96589.00
2023-02-06T23:03:57.766Z,96601.84
2023-02-06T23:05:57.151Z,96599.28
2023-02-06T23:07:56.948Z,96601.84
2023-02-06T23:09:55.585Z,96602.69
2023-02-06T23:12:00.316Z,96600.16
2023-02-06T23:14:00.812Z,96602.72
2023-02-06T23:15:59.618Z,96603.53
2023-02-06T23:17:57.814Z,96602.69
2023-02-06T23:19:56.126Z,96608.66
2023-02-06T23:21:54.629Z,96615.53
2023-02-06T23:23:56.198Z,96610.41
2023-02-06T23:25:54.979Z,96606.94
2023-02-06T23:27:53.170Z,96604.38
2023-02-06T23:29:51.590Z,96602.69
2023-02-06T23:31:50.886Z,96602.69
2023-02-06T23:33:49.193Z,96608.69
2023-02-06T23:35:47.885Z,96601.00
2023-02-06T23:37:46.168Z,96605.28
2023-02-06T23:39:45.986Z,96607.84
2023-02-06T23:41:44.396Z,96609.56
2023-02-06T23:43:42.692Z,96605.28
2023-02-06T23:45:41.698Z,96606.16
2023-02-06T23:47:40.201Z,96604.44
2023-02-06T23:49:38.478Z,96607.00
2023-02-06T23:51:38.110Z,96608.72
2023-02-06T23:53:36.557Z,96614.69